Humphrey, NE (68642)

5:05 PM CDT on October 15, 2019 (GMT -0500)
Eisenmenger West | | Change Station

Elev 1696 ft 41.63 °N, 97.51 °W | Updated 7 minutes ago

Mostly Cloudy
Mostly Cloudy
49.7 °F
Feels Like 44 °F
N
15
Wind Variable Wind from NNW
Gusts 23.0 mph

Today
High -- | Low -- °F
--% Chance of Precip.
Yesterday
High -- | Low -- °F
Precip. -- in
Pressure 30.13 in
Visibility 10.0 miles
Clouds Overcast 5000 ft
Windchill 44 °F
Dew Point 26 °F
Humidity 41%
Rainfall 0.00 in
Snow Depth Not available.
7:41 AM 6:48 PM
Waning Gibbous, 96% visible
METAR KOLU 152156Z AUTO 32025G29KT 10SM OVC050 11/M01 A3011 RMK AO2 PK WND 33031/2109 SLP201 T01061006
Pressure 30.13 in
Visibility 10.0 miles
Clouds Overcast 5000 ft
Windchill 44 °F
Dew Point 26 °F
Humidity 41%
Rainfall 0.00 in
Snow Depth Not available.
7:41 AM 6:48 PM
Waning Gibbous, 96% visible
METAR KOLU 152156Z AUTO 32025G29KT 10SM OVC050 11/M01 A3011 RMK AO2 PK WND 33031/2109 SLP201 T01061006

Get Severe Weather Alerts

Thanks for signing up!

Be on the lookout for a verification email in your inbox.

You'll start receiving the daily forecast at 6 AM.

×

10-Day Weather Forecast

Almanac

Astronomy

Oct. 15, 2019 Rise Set
Actual Time
Civil Twilight
Nautical Twilight
Astronomical Twilight
Moon
Length of Visible Light
Length of Day
Tomorrow will be .
, % of the Moon is Illuminated

Today's Extremes

State Highs State Lows

Community

WunderPhotos

Category 6

Welcome to Category 6. This is the collective home for Weather Underground's featured writeups by Dr. Jeff Masters (right), Bob Henson (left), Chris Burt, and other regular contributors.

Nearby

Air Quality

  Air Quality AQ Index Pollutant
Not available.

Snow Depth

Station Depth Elevation

Earthquake Activity

City Distance Mag. Time & Date
Minimum magnitude displayed is 2.5.

Coastal Water Temperatures

Place Temperature

Stations

Nearby Weather Stations

Station Location Temp. Windchill Dew Point Humidity Wind Precip. Elev Updated Type
                   

Watches & Warnings

There are currently no watches in effect.